createdAt,value
2023-05-19T00:01:24.903Z,88.21
2023-05-19T00:03:57.674Z,87.73
2023-05-19T00:06:26.757Z,87.19
2023-05-19T00:08:58.813Z,86.88
2023-05-19T00:11:27.623Z,87.10
2023-05-19T00:13:56.423Z,87.36
2023-05-19T00:16:25.465Z,88.55
2023-05-19T00:18:54.731Z,88.23
2023-05-19T00:21:22.374Z,88.16
2023-05-19T00:23:50.098Z,88.51
2023-05-19T00:26:17.740Z,88.38
2023-05-19T00:28:55.624Z,88.69
2023-05-19T00:31:23.425Z,88.67
2023-05-19T00:33:52.050Z,87.79
2023-05-19T00:36:21.061Z,88.49
2023-05-19T00:38:48.618Z,88.06
2023-05-19T00:41:16.377Z,88.34
2023-05-19T00:43:43.971Z,87.45
2023-05-19T00:46:11.828Z,88.78
2023-05-19T00:48:39.609Z,89.39
2023-05-19T00:51:07.482Z,89.40
2023-05-19T00:53:36.618Z,90.62
2023-05-19T00:56:04.710Z,89.61
2023-05-19T00:58:33.050Z,89.93
2023-05-19T01:01:03.468Z,89.82
2023-05-19T01:03:32.762Z,89.35
2023-05-19T01:06:04.810Z,90.45
2023-05-19T01:08:32.973Z,90.36
2023-05-19T01:11:02.367Z,90.65
2023-05-19T01:13:30.943Z,90.53
2023-05-19T01:16:06.654Z,90.28
2023-05-19T01:18:44.679Z,90.46
2023-05-19T01:21:51.489Z,89.99
2023-05-19T01:24:54.870Z,91.66
2023-05-19T01:27:46.841Z,91.62
2023-05-19T01:30:27.810Z,91.59
2023-05-19T01:32:59.211Z,91.38
2023-05-19T01:35:27.800Z,90.60
2023-05-19T01:37:57.392Z,91.40
2023-05-19T01:40:27.180Z,92.04
2023-05-19T01:42:57.840Z,90.78
2023-05-19T01:45:30.018Z,92.50
2023-05-19T01:48:00.228Z,92.40
2023-05-19T01:50:28.192Z,91.95
2023-05-19T01:52:56.212Z,91.82
2023-05-19T01:55:24.072Z,92.63
2023-05-19T01:58:01.511Z,92.96
2023-05-19T02:00:44.355Z,92.63
2023-05-19T02:03:24.146Z,93.08
2023-05-19T02:05:59.629Z,93.11
2023-05-19T02:08:31.639Z,93.74
2023-05-19T02:11:03.883Z,93.83
2023-05-19T02:13:37.679Z,93.44
2023-05-19T02:16:08.083Z,92.61
2023-05-19T02:18:36.202Z,93.19
2023-05-19T02:21:03.824Z,93.52
2023-05-19T02:23:31.926Z,94.02
2023-05-19T02:25:59.577Z,94.26
2023-05-19T02:28:28.400Z,94.61
2023-05-19T02:30:56.088Z,94.32
2023-05-19T02:33:27.439Z,95.24
2023-05-19T02:35:55.068Z,95.25
2023-05-19T02:38:22.710Z,95.31
2023-05-19T02:40:52.529Z,95.22
2023-05-19T02:43:20.309Z,95.22
2023-05-19T02:45:47.862Z,95.84
2023-05-19T02:48:15.480Z,95.01
2023-05-19T02:50:44.436Z,95.40
2023-05-19T02:53:12.020Z,96.64
2023-05-19T02:55:39.616Z,95.66
2023-05-19T02:58:07.398Z,96.32
2023-05-19T03:00:35.081Z,97.00
2023-05-19T03:03:03.169Z,96.82
2023-05-19T03:05:31.093Z,96.67
2023-05-19T03:08:00.114Z,96.38
2023-05-19T03:10:27.936Z,96.92
2023-05-19T03:12:55.509Z,96.93
2023-05-19T03:15:23.479Z,96.56
2023-05-19T03:17:51.923Z,97.22
2023-05-19T03:20:19.851Z,97.47
2023-05-19T03:22:47.567Z,96.93
2023-05-19T03:25:17.016Z,97.61
2023-05-19T03:27:44.679Z,97.80
2023-05-19T03:30:13.561Z,96.94
2023-05-19T03:32:54.257Z,97.58
2023-05-19T03:35:22.220Z,96.61
2023-05-19T03:37:50.111Z,96.89
2023-05-19T03:40:19.665Z,97.07
2023-05-19T03:42:48.779Z,97.58
2023-05-19T03:45:17.319Z,96.92
2023-05-19T03:47:48.670Z,96.35
2023-05-19T03:50:31.634Z,96.64
2023-05-19T03:53:12.860Z,96.98
2023-05-19T03:55:44.348Z,96.94
2023-05-19T03:58:14.527Z,97.00
2023-05-19T04:00:42.163Z,96.52
2023-05-19T04:03:09.847Z,96.35
2023-05-19T04:05:37.579Z,96.99
2023-05-19T04:08:05.549Z,96.44
2023-05-19T04:10:33.225Z,96.35
2023-05-19T04:13:02.241Z,95.93
2023-05-19T04:15:30.133Z,95.75
2023-05-19T04:17:57.917Z,96.25
2023-05-19T04:20:25.516Z,95.49
2023-05-19T04:22:53.102Z,95.48
2023-05-19T04:25:20.995Z,96.47
2023-05-19T04:27:49.409Z,95.80
2023-05-19T04:30:22.326Z,96.53
2023-05-19T04:32:50.928Z,95.89
2023-05-19T04:35:19.321Z,96.34
2023-05-19T04:37:48.369Z,95.23
2023-05-19T04:40:21.046Z,95.20
2023-05-19T04:42:49.691Z,96.13
2023-05-19T04:45:19.122Z,96.43
2023-05-19T04:47:50.225Z,96.28
2023-05-19T04:50:17.847Z,95.47
2023-05-19T04:52:46.404Z,95.65
2023-05-19T04:55:15.334Z,95.90
2023-05-19T04:57:43.383Z,95.61
2023-05-19T05:00:14.292Z,95.10
2023-05-19T05:02:58.436Z,94.23
2023-05-19T05:05:28.480Z,95.01
2023-05-19T05:07:56.402Z,95.02
2023-05-19T05:10:26.316Z,94.43
2023-05-19T05:12:55.465Z,93.92
2023-05-19T05:15:24.183Z,93.59
2023-05-19T05:17:52.774Z,93.73
2023-05-19T05:20:24.018Z,93.97
2023-05-19T05:22:52.358Z,94.07
2023-05-19T05:25:21.839Z,93.89
2023-05-19T05:27:50.662Z,94.03
2023-05-19T05:30:18.987Z,94.08
2023-05-19T05:32:48.153Z,93.69
2023-05-19T05:35:39.214Z,94.12
2023-05-19T05:38:08.651Z,94.94
2023-05-19T05:40:37.759Z,95.04
2023-05-19T05:43:06.222Z,95.13
2023-05-19T05:45:38.343Z,93.68
2023-05-19T05:48:07.552Z,94.03
2023-05-19T05:50:35.955Z,93.54
2023-05-19T05:53:07.454Z,93.11
2023-05-19T05:55:38.156Z,92.95
2023-05-19T05:58:10.976Z,93.74
2023-05-19T06:00:38.913Z,92.75
2023-05-19T06:03:06.699Z,92.95
2023-05-19T06:05:34.461Z,92.92
2023-05-19T06:08:02.630Z,91.22
2023-05-19T06:10:32.561Z,92.98
2023-05-19T06:13:00.440Z,93.02
2023-05-19T06:15:28.292Z,92.91
2023-05-19T06:18:10.496Z,91.82
2023-05-19T06:20:38.106Z,90.91
2023-05-19T06:23:05.706Z,90.99
2023-05-19T06:25:34.852Z,91.18
2023-05-19T06:28:03.464Z,90.65
2023-05-19T06:30:31.451Z,89.48
2023-05-19T06:33:11.852Z,88.62
2023-05-19T06:35:39.510Z,87.90
2023-05-19T06:38:07.234Z,87.81
2023-05-19T06:40:37.135Z,87.35
2023-05-19T06:43:04.861Z,88.34
2023-05-19T06:45:52.418Z,89.16
2023-05-19T06:48:20.002Z,88.69
2023-05-19T06:50:48.698Z,87.82
2023-05-19T06:53:18.249Z,87.74
2023-05-19T06:55:58.768Z,87.04
2023-05-19T06:58:29.359Z,86.82
2023-05-19T07:00:57.777Z,86.04
2023-05-19T07:03:30.983Z,86.30
2023-05-19T07:05:59.843Z,86.57
2023-05-19T07:08:29.080Z,85.45
2023-05-19T07:10:59.349Z,84.00
2023-05-19T07:13:27.665Z,84.14
2023-05-19T07:15:56.592Z,82.95
2023-05-19T07:18:25.397Z,83.15
2023-05-19T07:20:53.670Z,82.20
2023-05-19T07:23:21.764Z,82.17
2023-05-19T07:25:49.330Z,79.40
2023-05-19T07:28:18.293Z,79.81
2023-05-19T07:30:45.851Z,77.92
2023-05-19T07:33:13.644Z,77.20
2023-05-19T07:35:41.308Z,76.55
2023-05-19T07:38:08.929Z,76.93
2023-05-19T07:40:36.465Z,77.47
2023-05-19T07:43:04.037Z,77.10
2023-05-19T07:45:33.049Z,76.15
2023-05-19T07:48:00.766Z,75.32
2023-05-19T07:50:28.506Z,74.54
2023-05-19T07:52:56.433Z,75.80
2023-05-19T07:55:24.212Z,73.77
2023-05-19T07:57:51.794Z,74.38
2023-05-19T08:00:19.690Z,73.99
2023-05-19T08:02:48.674Z,72.80
2023-05-19T08:05:16.301Z,71.63
2023-05-19T08:07:43.927Z,69.91
2023-05-19T08:10:11.637Z,68.84
2023-05-19T08:12:39.249Z,69.54
2023-05-19T08:15:07.911Z,69.05
2023-05-19T08:17:35.779Z,69.42
2023-05-19T08:20:06.228Z,69.43
2023-05-19T08:22:33.781Z,66.64
2023-05-19T08:25:01.389Z,66.76
2023-05-19T08:27:29.015Z,65.70
2023-05-19T08:29:57.243Z,66.24
2023-05-19T08:32:25.477Z,66.26
2023-05-19T08:34:53.337Z,64.74
2023-05-19T08:37:22.373Z,65.22
2023-05-19T08:39:49.968Z,65.64
2023-05-19T08:42:17.612Z,66.22
2023-05-19T08:44:45.268Z,65.88
2023-05-19T08:47:13.844Z,67.24
2023-05-19T08:49:46.205Z,65.83
2023-05-19T08:52:26.185Z,67.05
2023-05-19T08:55:00.881Z,66.37
2023-05-19T08:57:29.353Z,65.09
2023-05-19T08:59:57.993Z,63.98
2023-05-19T09:02:26.203Z,64.83
2023-05-19T09:04:54.688Z,63.78
2023-05-19T09:07:25.576Z,63.96
2023-05-19T09:09:53.205Z,64.71
2023-05-19T09:12:21.583Z,65.45
2023-05-19T09:14:49.428Z,64.42
2023-05-19T09:17:18.569Z,63.76
2023-05-19T09:19:48.074Z,64.18
2023-05-19T09:22:19.041Z,64.99
2023-05-19T09:24:48.078Z,63.55
2023-05-19T09:27:22.064Z,63.46
2023-05-19T09:29:49.698Z,64.63
2023-05-19T09:32:26.025Z,64.77
2023-05-19T09:34:54.512Z,64.10
2023-05-19T09:37:24.034Z,63.85
2023-05-19T09:39:53.122Z,63.66
2023-05-19T09:42:26.646Z,62.63
2023-05-19T09:45:01.518Z,64.22
2023-05-19T09:47:29.284Z,63.51
2023-05-19T09:49:58.510Z,62.91
2023-05-19T09:52:27.325Z,62.68
2023-05-19T09:54:57.551Z,64.30
2023-05-19T09:57:26.939Z,62.91
2023-05-19T09:59:56.817Z,62.25
2023-05-19T10:02:26.930Z,61.13
2023-05-19T10:04:56.105Z,60.29
2023-05-19T10:07:25.049Z,60.14
2023-05-19T10:09:56.591Z,58.45
2023-05-19T10:12:27.456Z,57.53
2023-05-19T10:14:55.862Z,57.55
2023-05-19T10:17:24.805Z,56.67
2023-05-19T10:19:54.675Z,54.92
2023-05-19T10:22:22.514Z,55.50
2023-05-19T10:24:50.093Z,54.67
2023-05-19T10:27:18.914Z,56.27
2023-05-19T10:29:50.701Z,53.48
2023-05-19T10:32:23.900Z,54.45
2023-05-19T10:35:25.012Z,54.60
2023-05-19T10:37:59.978Z,53.60
2023-05-19T10:40:29.643Z,53.19
2023-05-19T10:43:21.933Z,53.18
2023-05-19T10:45:54.603Z,52.50
2023-05-19T10:48:22.939Z,51.65
2023-05-19T10:50:54.399Z,51.21
2023-05-19T10:53:21.999Z,50.47
2023-05-19T10:55:55.929Z,51.10
2023-05-19T10:58:39.118Z,49.73
2023-05-19T11:01:15.186Z,49.50
2023-05-19T11:03:48.018Z,49.01
2023-05-19T11:06:25.632Z,49.08
2023-05-19T11:09:01.925Z,48.60
2023-05-19T11:11:48.099Z,49.44
2023-05-19T11:14:17.678Z,49.05
2023-05-19T11:16:49.311Z,47.21
2023-05-19T11:19:21.395Z,47.78
2023-05-19T11:21:50.415Z,49.33
2023-05-19T11:24:37.684Z,48.21
2023-05-19T11:27:22.236Z,48.20
2023-05-19T11:29:51.148Z,49.17
2023-05-19T11:32:21.706Z,49.59
2023-05-19T11:34:50.359Z,48.33
2023-05-19T11:37:17.985Z,49.13
2023-05-19T11:39:47.516Z,46.92
2023-05-19T11:42:15.157Z,47.47
2023-05-19T11:44:46.037Z,46.84
2023-05-19T11:47:14.138Z,48.25
2023-05-19T11:49:45.913Z,47.52
2023-05-19T11:52:13.782Z,48.07
2023-05-19T11:54:42.122Z,47.10
2023-05-19T11:57:10.475Z,48.30
2023-05-19T11:59:40.590Z,46.77
2023-05-19T12:02:17.772Z,47.47
2023-05-19T12:04:46.982Z,47.25
2023-05-19T12:07:17.534Z,46.22
2023-05-19T12:09:46.457Z,46.21
2023-05-19T12:12:15.797Z,46.59
2023-05-19T12:14:43.718Z,46.21
2023-05-19T12:17:13.084Z,47.25
2023-05-19T12:19:42.152Z,45.04
2023-05-19T12:22:11.678Z,44.47
2023-05-19T12:24:40.623Z,45.24
2023-05-19T12:27:12.350Z,42.91
2023-05-19T12:29:40.069Z,46.15
2023-05-19T12:32:09.173Z,46.55
2023-05-19T12:34:38.370Z,46.46
2023-05-19T12:37:06.386Z,45.57
2023-05-19T12:39:35.572Z,44.86
2023-05-19T12:42:03.978Z,44.13
2023-05-19T12:44:32.091Z,43.05
2023-05-19T12:47:00.545Z,42.63
2023-05-19T12:49:28.152Z,43.04
2023-05-19T12:51:55.786Z,41.06
2023-05-19T12:54:23.520Z,40.17
2023-05-19T12:56:53.857Z,39.75
2023-05-19T12:59:37.323Z,39.47
2023-05-19T13:02:06.372Z,39.89
2023-05-19T13:04:34.149Z,40.63
2023-05-19T13:07:01.826Z,41.96
2023-05-19T13:09:29.372Z,40.64
2023-05-19T13:11:58.655Z,40.32
2023-05-19T13:14:26.289Z,40.76
2023-05-19T13:16:53.954Z,42.04
2023-05-19T13:19:25.270Z,43.26
2023-05-19T13:21:53.462Z,41.87
2023-05-19T13:24:21.250Z,42.76
2023-05-19T13:26:48.976Z,43.28
2023-05-19T13:29:17.912Z,43.82
2023-05-19T13:31:46.256Z,44.25
2023-05-19T13:34:13.986Z,41.99
2023-05-19T13:36:42.794Z,40.73
2023-05-19T13:39:10.491Z,39.13
2023-05-19T13:41:38.333Z,39.36
2023-05-19T13:44:06.126Z,39.58
2023-05-19T13:46:44.764Z,41.46
2023-05-19T13:49:14.095Z,40.79
2023-05-19T13:51:43.639Z,42.83
2023-05-19T13:54:11.425Z,42.85
2023-05-19T13:56:39.082Z,43.62
2023-05-19T13:59:06.671Z,40.75
2023-05-19T14:01:35.688Z,42.70
2023-05-19T14:04:03.426Z,41.68
2023-05-19T14:06:31.064Z,43.85
2023-05-19T14:08:58.656Z,44.78
2023-05-19T14:11:26.223Z,45.63
2023-05-19T14:13:53.818Z,43.56
2023-05-19T14:16:22.203Z,44.34
2023-05-19T14:18:51.301Z,45.16
2023-05-19T14:21:19.232Z,44.89
2023-05-19T14:23:46.858Z,42.73
2023-05-19T14:26:14.429Z,44.39
2023-05-19T14:28:42.053Z,43.83
2023-05-19T14:31:12.201Z,43.79
2023-05-19T14:33:39.946Z,44.25
2023-05-19T14:36:09.397Z,44.42
2023-05-19T14:38:37.612Z,45.17
2023-05-19T14:41:05.537Z,44.52
2023-05-19T14:43:33.201Z,44.14
2023-05-19T14:46:00.917Z,44.55
2023-05-19T14:48:28.509Z,43.64
2023-05-19T14:50:56.061Z,43.45
2023-05-19T14:53:25.000Z,43.30
2023-05-19T14:55:52.607Z,43.39
2023-05-19T14:58:29.037Z,43.27
2023-05-19T15:00:58.651Z,44.54
2023-05-19T15:03:26.312Z,45.36
2023-05-19T15:05:53.896Z,44.56
2023-05-19T15:08:21.470Z,45.26
2023-05-19T15:10:51.344Z,46.21
2023-05-19T15:13:21.281Z,46.91
2023-05-19T15:15:48.827Z,47.49
2023-05-19T15:18:18.567Z,47.15
2023-05-19T15:20:46.589Z,47.01
2023-05-19T15:23:14.167Z,47.45
2023-05-19T15:25:41.805Z,48.02
2023-05-19T15:28:10.702Z,47.94
2023-05-19T15:30:38.498Z,48.26
2023-05-19T15:33:06.339Z,49.23
2023-05-19T15:35:33.959Z,49.20
2023-05-19T15:38:05.974Z,49.22
2023-05-19T15:40:34.120Z,48.69
2023-05-19T15:43:02.117Z,48.92
2023-05-19T15:45:31.162Z,47.97
2023-05-19T15:47:58.700Z,48.48
2023-05-19T15:50:26.642Z,48.65
2023-05-19T15:52:54.204Z,49.02
2023-05-19T15:55:22.083Z,48.70
2023-05-19T15:57:49.624Z,48.55
2023-05-19T16:00:17.355Z,48.94
2023-05-19T16:02:46.501Z,49.02
2023-05-19T16:05:14.161Z,49.56
2023-05-19T16:07:42.698Z,50.19
2023-05-19T16:10:10.755Z,50.96
2023-05-19T16:12:38.486Z,51.95
2023-05-19T16:15:07.040Z,50.86
2023-05-19T16:17:34.988Z,51.63
2023-05-19T16:20:04.355Z,51.92
2023-05-19T16:22:31.954Z,52.34
2023-05-19T16:24:59.520Z,52.46
2023-05-19T16:27:27.244Z,52.90
2023-05-19T16:29:56.135Z,52.51
2023-05-19T16:32:23.804Z,52.71
2023-05-19T16:34:51.405Z,52.95
2023-05-19T16:37:20.255Z,52.51
2023-05-19T16:39:48.324Z,53.35
2023-05-19T16:42:15.932Z,53.41
2023-05-19T16:44:43.540Z,54.03
2023-05-19T16:47:11.118Z,54.86
2023-05-19T16:49:40.377Z,54.67
2023-05-19T16:52:07.998Z,53.76
2023-05-19T16:54:37.038Z,53.70
2023-05-19T16:57:04.876Z,53.81
2023-05-19T16:59:32.499Z,54.67
2023-05-19T17:02:00.129Z,54.05
2023-05-19T17:04:30.007Z,54.50
2023-05-19T17:06:58.479Z,55.18
2023-05-19T17:09:26.340Z,54.96
2023-05-19T17:11:55.620Z,53.66
2023-05-19T17:14:23.369Z,54.24
2023-05-19T17:16:52.341Z,54.09
2023-05-19T17:19:20.041Z,54.06
2023-05-19T17:21:47.682Z,53.49
2023-05-19T17:24:15.547Z,53.59
2023-05-19T17:26:43.108Z,52.24
2023-05-19T17:29:12.450Z,53.16
2023-05-19T17:31:40.188Z,52.65
2023-05-19T17:34:07.947Z,53.44
2023-05-19T17:36:35.559Z,54.64
2023-05-19T17:39:03.531Z,54.08
2023-05-19T17:41:31.212Z,54.63
2023-05-19T17:43:58.762Z,53.18
2023-05-19T17:46:30.137Z,53.05
2023-05-19T17:48:57.831Z,54.68
2023-05-19T17:51:25.853Z,55.29
2023-05-19T17:53:53.955Z,56.28
2023-05-19T17:56:22.355Z,54.29
2023-05-19T17:58:50.523Z,53.87
2023-05-19T18:01:20.353Z,53.08
2023-05-19T18:03:50.117Z,51.77
2023-05-19T18:06:18.758Z,50.82
2023-05-19T18:08:50.414Z,52.54
2023-05-19T18:11:18.660Z,51.56
2023-05-19T18:13:46.254Z,52.79
2023-05-19T18:16:13.886Z,53.51
2023-05-19T18:18:43.481Z,53.23
2023-05-19T18:21:14.244Z,53.29
2023-05-19T18:23:42.188Z,52.36
2023-05-19T18:26:09.776Z,52.29
2023-05-19T18:28:37.319Z,55.29
2023-05-19T18:31:07.511Z,55.01
2023-05-19T18:33:35.191Z,55.84
2023-05-19T18:36:02.816Z,57.36
2023-05-19T18:38:31.744Z,57.36
2023-05-19T18:41:00.723Z,58.42
2023-05-19T18:43:29.993Z,58.90
2023-05-19T18:45:58.235Z,58.73
2023-05-19T18:48:26.884Z,60.13
2023-05-19T18:50:54.566Z,59.64
2023-05-19T18:53:22.689Z,60.42
2023-05-19T18:55:51.678Z,60.61
2023-05-19T18:58:19.573Z,59.92
2023-05-19T19:00:47.371Z,60.25
2023-05-19T19:03:15.016Z,60.49
2023-05-19T19:05:42.739Z,60.18
2023-05-19T19:08:10.492Z,61.23
2023-05-19T19:10:40.416Z,61.05
2023-05-19T19:13:09.350Z,62.42
2023-05-19T19:15:39.630Z,61.94
2023-05-19T19:18:08.196Z,62.00
2023-05-19T19:20:36.136Z,62.16
2023-05-19T19:23:06.335Z,62.80
2023-05-19T19:25:34.007Z,63.71
2023-05-19T19:28:02.305Z,63.39
2023-05-19T19:30:31.609Z,63.46
2023-05-19T19:33:00.018Z,63.21
2023-05-19T19:35:27.622Z,63.35
2023-05-19T19:37:55.213Z,63.87
2023-05-19T19:40:23.011Z,64.15
2023-05-19T19:42:50.725Z,64.75
2023-05-19T19:45:19.399Z,64.58
2023-05-19T19:47:48.397Z,65.24
2023-05-19T19:50:16.426Z,65.85
2023-05-19T19:52:44.158Z,65.81
2023-05-19T19:55:11.840Z,65.86
2023-05-19T19:57:39.442Z,66.25
2023-05-19T20:00:09.027Z,66.25
2023-05-19T20:02:45.538Z,66.60
2023-05-19T20:05:24.625Z,66.43
2023-05-19T20:07:52.250Z,66.44
2023-05-19T20:10:20.039Z,67.08
2023-05-19T20:12:48.076Z,67.14
2023-05-19T20:15:16.262Z,67.26
2023-05-19T20:17:43.895Z,67.19
2023-05-19T20:20:12.827Z,67.42
2023-05-19T20:22:41.828Z,67.87
2023-05-19T20:25:10.897Z,67.84
2023-05-19T20:27:38.523Z,67.89
2023-05-19T20:30:07.303Z,68.66
2023-05-19T20:32:35.028Z,68.51
2023-05-19T20:35:02.592Z,69.36
2023-05-19T20:37:30.472Z,69.85
2023-05-19T20:39:59.469Z,69.85
2023-05-19T20:42:27.050Z,69.91
2023-05-19T20:44:54.795Z,70.59
2023-05-19T20:47:22.413Z,70.66
2023-05-19T20:49:49.972Z,70.79
2023-05-19T20:52:18.239Z,70.62
2023-05-19T20:54:46.244Z,71.80
2023-05-19T20:57:15.456Z,71.22
2023-05-19T20:59:43.050Z,71.05
2023-05-19T21:02:11.604Z,70.68
2023-05-19T21:04:39.695Z,71.23
2023-05-19T21:07:07.485Z,71.18
2023-05-19T21:09:35.101Z,70.52
2023-05-19T21:12:02.926Z,71.09
2023-05-19T21:14:31.819Z,71.78
2023-05-19T21:16:59.491Z,71.90
2023-05-19T21:19:27.379Z,71.23
2023-05-19T21:21:54.998Z,71.82
2023-05-19T21:24:22.601Z,71.24
2023-05-19T21:26:51.302Z,70.80
2023-05-19T21:29:19.056Z,70.67
2023-05-19T21:31:47.948Z,70.30
2023-05-19T21:34:15.597Z,69.47
2023-05-19T21:36:43.186Z,69.54
2023-05-19T21:39:10.986Z,68.74
2023-05-19T21:41:38.707Z,69.01
2023-05-19T21:44:06.285Z,68.58
2023-05-19T21:46:33.988Z,68.29
2023-05-19T21:49:02.965Z,68.70
2023-05-19T21:51:31.502Z,68.13
2023-05-19T21:53:59.459Z,68.68
2023-05-19T21:56:27.430Z,68.43
2023-05-19T21:58:55.066Z,68.14
2023-05-19T22:01:22.820Z,67.85
2023-05-19T22:03:50.558Z,68.26
2023-05-19T22:06:19.625Z,67.86
2023-05-19T22:08:47.168Z,66.54
2023-05-19T22:11:17.897Z,67.20
2023-05-19T22:13:45.762Z,67.00
2023-05-19T22:16:13.320Z,66.01
2023-05-19T22:18:41.229Z,66.02
2023-05-19T22:21:09.052Z,66.17
2023-05-19T22:23:37.971Z,65.78
2023-05-19T22:26:05.938Z,66.25
2023-05-19T22:28:33.600Z,65.61
2023-05-19T22:31:01.218Z,66.11
2023-05-19T22:33:28.820Z,65.89
2023-05-19T22:35:56.545Z,64.97
2023-05-19T22:38:24.119Z,64.97
2023-05-19T22:40:53.208Z,65.79
2023-05-19T22:43:20.743Z,65.62
2023-05-19T22:45:49.252Z,65.56
2023-05-19T22:48:17.164Z,65.05
2023-05-19T22:50:44.819Z,64.66
2023-05-19T22:53:12.404Z,64.66
2023-05-19T22:55:40.050Z,64.48
2023-05-19T22:58:08.930Z,63.66
2023-05-19T23:00:36.501Z,63.45
2023-05-19T23:03:04.169Z,63.27
2023-05-19T23:05:31.973Z,63.79
2023-05-19T23:07:59.685Z,63.07
2023-05-19T23:10:27.424Z,63.01
2023-05-19T23:12:55.113Z,62.92
2023-05-19T23:15:24.073Z,62.97
2023-05-19T23:17:51.761Z,62.33
2023-05-19T23:20:19.515Z,62.32
2023-05-19T23:22:47.068Z,62.26
2023-05-19T23:25:14.682Z,62.38
2023-05-19T23:27:42.288Z,62.39
2023-05-19T23:30:10.423Z,62.20
2023-05-19T23:32:40.797Z,61.46
2023-05-19T23:35:12.851Z,61.91
2023-05-19T23:37:40.691Z,61.76
2023-05-19T23:40:09.503Z,62.04
2023-05-19T23:42:37.497Z,62.43
2023-05-19T23:45:05.817Z,61.63
2023-05-19T23:47:33.559Z,61.99
2023-05-19T23:50:02.492Z,62.39
2023-05-19T23:52:30.183Z,62.95
2023-05-19T23:54:57.754Z,62.61
2023-05-19T23:57:25.617Z,62.21
2023-05-19T23:59:53.253Z,62.81
